sensor_id;sensor_type;location;lat;lon;timestamp;pressure;altitude;pressure_sealevel;temperature;humidity
29197;BME280;62796;42.654;23.316;2023-07-31T00:00:50;94238.88;;;25.10;49.01
29197;BME280;62796;42.654;23.316;2023-07-31T00:03:15;94245.59;;;25.05;49.40
29197;BME280;62796;42.654;23.316;2023-07-31T00:05:41;94237.09;;;25.05;49.70
29197;BME280;62796;42.654;23.316;2023-07-31T00:08:06;94245.38;;;24.93;49.37
29197;BME280;62796;42.654;23.316;2023-07-31T00:10:32;94248.47;;;24.88;49.65
29197;BME280;62796;42.654;23.316;2023-07-31T00:12:58;94247.47;;;24.75;50.43
29197;BME280;62796;42.654;23.316;2023-07-31T00:15:24;94239.81;;;24.68;50.88
29197;BME280;62796;42.654;23.316;2023-07-31T00:17:49;94244.66;;;24.58;51.13
29197;BME280;62796;42.654;23.316;2023-07-31T00:20:15;94248.25;;;24.59;50.81
29197;BME280;62796;42.654;23.316;2023-07-31T00:22:40;94231.84;;;24.40;51.17
29197;BME280;62796;42.654;23.316;2023-07-31T00:25:06;94243.50;;;24.44;50.98
29197;BME280;62796;42.654;23.316;2023-07-31T00:27:32;94242.34;;;24.47;51.49
29197;BME280;62796;42.654;23.316;2023-07-31T00:29:57;94239.03;;;24.41;52.35
29197;BME280;62796;42.654;23.316;2023-07-31T00:32:22;94218.81;;;24.28;53.06
29197;BME280;62796;42.654;23.316;2023-07-31T00:34:48;94220.91;;;24.27;53.40
29197;BME280;62796;42.654;23.316;2023-07-31T00:37:13;94211.00;;;24.18;53.86
29197;BME280;62796;42.654;23.316;2023-07-31T00:39:40;94212.56;;;24.12;53.95
29197;BME280;62796;42.654;23.316;2023-07-31T00:42:06;94213.34;;;24.12;54.37
29197;BME280;62796;42.654;23.316;2023-07-31T00:44:31;94203.06;;;24.00;54.61
29197;BME280;62796;42.654;23.316;2023-07-31T00:46:57;94218.38;;;23.97;54.53
29197;BME280;62796;42.654;23.316;2023-07-31T00:49:24;94216.69;;;23.94;54.80
29197;BME280;62796;42.654;23.316;2023-07-31T00:51:49;94218.38;;;23.97;54.64
29197;BME280;62796;42.654;23.316;2023-07-31T00:54:15;94219.53;;;23.94;54.47
29197;BME280;62796;42.654;23.316;2023-07-31T00:56:41;94214.38;;;23.83;54.94
29197;BME280;62796;42.654;23.316;2023-07-31T00:59:09;94210.84;;;23.75;54.59
29197;BME280;62796;42.654;23.316;2023-07-31T01:01:35;94205.19;;;23.75;55.19
29197;BME280;62796;42.654;23.316;2023-07-31T01:04:00;94204.13;;;23.70;55.65
29197;BME280;62796;42.654;23.316;2023-07-31T01:09:43;94209.28;;;23.64;55.75
29197;BME280;62796;42.654;23.316;2023-07-31T01:12:14;94198.44;;;23.53;55.84
29197;BME280;62796;42.654;23.316;2023-07-31T01:14:39;94204.50;;;23.49;55.83
29197;BME280;62796;42.654;23.316;2023-07-31T01:17:05;94198.34;;;23.43;56.09
29197;BME280;62796;42.654;23.316;2023-07-31T01:19:30;94195.34;;;23.41;56.44
29197;BME280;62796;42.654;23.316;2023-07-31T01:25:27;94200.38;;;23.50;56.41
29197;BME280;62796;42.654;23.316;2023-07-31T01:28:04;94192.16;;;23.37;56.70
29197;BME280;62796;42.654;23.316;2023-07-31T01:30:37;94197.44;;;23.33;56.55
29197;BME280;62796;42.654;23.316;2023-07-31T01:33:05;94198.19;;;23.34;56.69
29197;BME280;62796;42.654;23.316;2023-07-31T01:35:36;94191.03;;;23.33;57.17
29197;BME280;62796;42.654;23.316;2023-07-31T01:38:02;94199.66;;;23.42;56.53
29197;BME280;62796;42.654;23.316;2023-07-31T01:40:27;94197.03;;;23.44;56.85
29197;BME280;62796;42.654;23.316;2023-07-31T01:42:53;94195.16;;;23.39;57.00
29197;BME280;62796;42.654;23.316;2023-07-31T01:45:18;94194.06;;;23.35;57.47
29197;BME280;62796;42.654;23.316;2023-07-31T01:47:44;94189.22;;;23.28;57.73
29197;BME280;62796;42.654;23.316;2023-07-31T01:50:09;94185.47;;;23.25;57.48
29197;BME280;62796;42.654;23.316;2023-07-31T01:52:35;94186.97;;;23.26;57.47
29197;BME280;62796;42.654;23.316;2023-07-31T01:55:00;94192.03;;;23.28;57.57
29197;BME280;62796;42.654;23.316;2023-07-31T01:57:26;94200.34;;;23.26;57.82
29197;BME280;62796;42.654;23.316;2023-07-31T01:59:51;94203.09;;;23.33;57.46
29197;BME280;62796;42.654;23.316;2023-07-31T02:02:18;94198.28;;;23.26;57.78
29197;BME280;62796;42.654;23.316;2023-07-31T02:04:44;94203.56;;;23.22;58.05
29197;BME280;62796;42.654;23.316;2023-07-31T02:07:09;94207.72;;;23.21;58.01
29197;BME280;62796;42.654;23.316;2023-07-31T02:09:34;94195.72;;;23.13;58.48
29197;BME280;62796;42.654;23.316;2023-07-31T02:12:00;94195.72;;;23.13;58.25
29197;BME280;62796;42.654;23.316;2023-07-31T02:14:25;94208.53;;;23.14;58.37
29197;BME280;62796;42.654;23.316;2023-07-31T02:16:50;94200.31;;;23.08;58.77
29197;BME280;62796;42.654;23.316;2023-07-31T02:19:16;94214.53;;;23.18;58.46
29197;BME280;62796;42.654;23.316;2023-07-31T02:21:41;94203.22;;;23.18;58.45
29197;BME280;62796;42.654;23.316;2023-07-31T02:24:06;94213.03;;;23.17;58.53
29197;BME280;62796;42.654;23.316;2023-07-31T02:26:32;94209.63;;;23.19;58.66
29197;BME280;62796;42.654;23.316;2023-07-31T02:28:57;94206.41;;;23.22;58.55
29197;BME280;62796;42.654;23.316;2023-07-31T02:31:23;94209.91;;;23.30;58.06
29197;BME280;62796;42.654;23.316;2023-07-31T02:33:48;94207.59;;;23.36;58.18
29197;BME280;62796;42.654;23.316;2023-07-31T02:36:13;94198.78;;;23.32;58.08
29197;BME280;62796;42.654;23.316;2023-07-31T02:38:39;94201.63;;;23.32;57.83
29197;BME280;62796;42.654;23.316;2023-07-31T02:41:05;94200.09;;;23.31;57.78
29197;BME280;62796;42.654;23.316;2023-07-31T02:43:30;94197.84;;;23.30;57.96
29197;BME280;62796;42.654;23.316;2023-07-31T02:45:56;94209.09;;;23.37;57.76
29197;BME280;62796;42.654;23.316;2023-07-31T02:48:21;94210.03;;;23.40;57.86
29197;BME280;62796;42.654;23.316;2023-07-31T02:50:47;94213.97;;;23.44;57.29
29197;BME280;62796;42.654;23.316;2023-07-31T02:53:12;94213.78;;;23.42;57.35
29197;BME280;62796;42.654;23.316;2023-07-31T02:55:38;94228.63;;;23.50;56.70
29197;BME280;62796;42.654;23.316;2023-07-31T02:58:04;94225.59;;;23.48;56.63
29197;BME280;62796;42.654;23.316;2023-07-31T03:00:29;94225.59;;;23.48;56.62
29197;BME280;62796;42.654;23.316;2023-07-31T03:02:54;94236.88;;;23.56;56.80
29197;BME280;62796;42.654;23.316;2023-07-31T03:05:20;94237.44;;;23.54;56.65
29197;BME280;62796;42.654;23.316;2023-07-31T03:07:45;94243.28;;;23.56;56.60
29197;BME280;62796;42.654;23.316;2023-07-31T03:10:11;94235.34;;;23.55;56.44
29197;BME280;62796;42.654;23.316;2023-07-31T03:12:36;94236.28;;;23.57;56.49
29197;BME280;62796;42.654;23.316;2023-07-31T03:15:02;94231.97;;;23.56;56.68
29197;BME280;62796;42.654;23.316;2023-07-31T03:17:27;94231.97;;;23.56;56.50
29197;BME280;62796;42.654;23.316;2023-07-31T03:19:52;94234.19;;;23.58;56.67
29197;BME280;62796;42.654;23.316;2023-07-31T03:22:18;94237.78;;;23.58;56.75
29197;BME280;62796;42.654;23.316;2023-07-31T03:24:43;94249.59;;;23.64;56.53
29197;BME280;62796;42.654;23.316;2023-07-31T03:27:08;94249.75;;;23.66;56.69
29197;BME280;62796;42.654;23.316;2023-07-31T03:29:34;94245.88;;;23.62;56.57
29197;BME280;62796;42.654;23.316;2023-07-31T03:31:59;94247.28;;;23.71;56.47
29197;BME280;62796;42.654;23.316;2023-07-31T03:34:25;94252.94;;;23.71;56.44
29197;BME280;62796;42.654;23.316;2023-07-31T03:36:50;94242.38;;;23.71;55.98
29197;BME280;62796;42.654;23.316;2023-07-31T03:39:18;94257.75;;;23.78;55.95
29197;BME280;62796;42.654;23.316;2023-07-31T03:41:44;94252.75;;;23.68;56.19
29197;BME280;62796;42.654;23.316;2023-07-31T03:44:09;94264.56;;;23.75;55.70
29197;BME280;62796;42.654;23.316;2023-07-31T03:46:34;94262.69;;;23.77;55.63
29197;BME280;62796;42.654;23.316;2023-07-31T03:49:01;94261.94;;;23.77;55.67
29197;BME280;62796;42.654;23.316;2023-07-31T03:51:26;94263.41;;;23.78;55.62
29197;BME280;62796;42.654;23.316;2023-07-31T03:53:52;94267.75;;;23.79;55.41
29197;BME280;62796;42.654;23.316;2023-07-31T03:56:17;94258.59;;;23.71;55.35
29197;BME280;62796;42.654;23.316;2023-07-31T03:58:42;94279.22;;;23.81;55.29
29197;BME280;62796;42.654;23.316;2023-07-31T04:01:08;94274.69;;;23.85;55.00
29197;BME280;62796;42.654;23.316;2023-07-31T04:03:33;94276.41;;;23.81;55.34
29197;BME280;62796;42.654;23.316;2023-07-31T04:05:59;94274.41;;;23.74;55.66
29197;BME280;62796;42.654;23.316;2023-07-31T04:08:24;94273.50;;;23.71;55.82
29197;BME280;62796;42.654;23.316;2023-07-31T04:10:50;94282.69;;;23.72;55.49
29197;BME280;62796;42.654;23.316;2023-07-31T04:13:15;94277.03;;;23.72;55.74
29197;BME280;62796;42.654;23.316;2023-07-31T04:15:41;94281.53;;;23.75;55.55
29197;BME280;62796;42.654;23.316;2023-07-31T04:18:06;94281.38;;;23.73;55.44
29197;BME280;62796;42.654;23.316;2023-07-31T04:20:32;94286.88;;;23.71;55.64
29197;BME280;62796;42.654;23.316;2023-07-31T04:22:57;94288.03;;;23.67;55.74
29197;BME280;62796;42.654;23.316;2023-07-31T04:25:23;94288.88;;;23.78;55.26
29197;BME280;62796;42.654;23.316;2023-07-31T04:27:48;94287.16;;;23.82;54.97
29197;BME280;62796;42.654;23.316;2023-07-31T04:30:13;94276.06;;;23.77;54.58
29197;BME280;62796;42.654;23.316;2023-07-31T04:32:39;94284.88;;;23.81;54.48
29197;BME280;62796;42.654;23.316;2023-07-31T04:35:04;94290.53;;;23.81;54.40
29197;BME280;62796;42.654;23.316;2023-07-31T04:37:30;94289.06;;;23.80;54.22
29197;BME280;62796;42.654;23.316;2023-07-31T04:39:55;94286.38;;;23.82;54.09
29197;BME280;62796;42.654;23.316;2023-07-31T04:42:21;94286.38;;;23.82;54.15
29197;BME280;62796;42.654;23.316;2023-07-31T04:44:46;94286.34;;;23.89;53.84
29197;BME280;62796;42.654;23.316;2023-07-31T04:47:11;94282.91;;;23.91;54.03
29197;BME280;62796;42.654;23.316;2023-07-31T04:49:37;94292.72;;;23.90;53.67
29197;BME280;62796;42.654;23.316;2023-07-31T04:52:03;94281.25;;;23.88;53.70
29197;BME280;62796;42.654;23.316;2023-07-31T04:54:28;94286.59;;;24.01;53.60
29197;BME280;62796;42.654;23.316;2023-07-31T04:56:53;94290.97;;;24.19;53.04
29197;BME280;62796;42.654;23.316;2023-07-31T04:59:19;94286.38;;;24.23;52.55
29197;BME280;62796;42.654;23.316;2023-07-31T05:01:44;94290.97;;;24.36;52.18
29197;BME280;62796;42.654;23.316;2023-07-31T05:04:13;94276.81;;;24.36;52.16
29197;BME280;62796;42.654;23.316;2023-07-31T05:06:39;94282.16;;;24.32;52.31
29197;BME280;62796;42.654;23.316;2023-07-31T05:09:05;94285.31;;;24.36;52.49
29197;BME280;62796;42.654;23.316;2023-07-31T05:11:30;94278.66;;;24.41;52.20
29197;BME280;62796;42.654;23.316;2023-07-31T05:13:55;94284.25;;;24.49;52.03
29197;BME280;62796;42.654;23.316;2023-07-31T05:16:21;94281.91;;;24.55;51.55
29197;BME280;62796;42.654;23.316;2023-07-31T05:18:47;94278.94;;;24.79;51.36
29197;BME280;62796;42.654;23.316;2023-07-31T05:21:12;94274.69;;;24.88;50.94
29197;BME280;62796;42.654;23.316;2023-07-31T05:23:38;94275.56;;;24.81;50.74
29197;BME280;62796;42.654;23.316;2023-07-31T05:26:04;94278.22;;;24.62;50.99
29197;BME280;62796;42.654;23.316;2023-07-31T05:28:30;94269.72;;;24.62;51.35
29197;BME280;62796;42.654;23.316;2023-07-31T05:31:03;94272.63;;;24.71;51.12
29197;BME280;62796;42.654;23.316;2023-07-31T05:33:29;94285.47;;;24.72;50.96
29197;BME280;62796;42.654;23.316;2023-07-31T05:35:54;94285.94;;;24.61;51.66
29197;BME280;62796;42.654;23.316;2023-07-31T05:38:20;94268.47;;;24.72;50.88
29197;BME280;62796;42.654;23.316;2023-07-31T05:40:45;94281.97;;;24.82;50.47
29197;BME280;62796;42.654;23.316;2023-07-31T05:43:11;94273.09;;;24.95;50.29
29197;BME280;62796;42.654;23.316;2023-07-31T05:45:37;94271.63;;;24.94;49.69
29197;BME280;62796;42.654;23.316;2023-07-31T05:48:03;94275.56;;;25.08;49.12
29197;BME280;62796;42.654;23.316;2023-07-31T05:50:28;94270.75;;;25.01;48.55
29197;BME280;62796;42.654;23.316;2023-07-31T05:52:54;94268.59;;;24.92;48.56
29197;BME280;62796;42.654;23.316;2023-07-31T05:55:19;94278.88;;;24.87;48.24
29197;BME280;62796;42.654;23.316;2023-07-31T05:57:44;94272.22;;;24.75;47.99
29197;BME280;62796;42.654;23.316;2023-07-31T06:00:13;94286.47;;;24.85;47.88
29197;BME280;62796;42.654;23.316;2023-07-31T06:02:38;94285.13;;;24.86;48.39
29197;BME280;62796;42.654;23.316;2023-07-31T06:05:04;94289.78;;;24.91;47.88
29197;BME280;62796;42.654;23.316;2023-07-31T06:07:31;94284.91;;;25.01;47.21
29197;BME280;62796;42.654;23.316;2023-07-31T06:09:57;94291.94;;;25.00;46.25
29197;BME280;62796;42.654;23.316;2023-07-31T06:12:28;94291.25;;;25.09;46.86
29197;BME280;62796;42.654;23.316;2023-07-31T06:14:54;94289.34;;;25.21;46.51
29197;BME280;62796;42.654;23.316;2023-07-31T06:17:19;94290.97;;;25.41;46.50
29197;BME280;62796;42.654;23.316;2023-07-31T06:19:44;94291.81;;;25.34;46.15
29197;BME280;62796;42.654;23.316;2023-07-31T06:22:10;94290.31;;;25.33;45.33
29197;BME280;62796;42.654;23.316;2023-07-31T06:24:35;94292.78;;;24.93;46.04
29197;BME280;62796;42.654;23.316;2023-07-31T06:27:00;94285.72;;;25.11;44.73
29197;BME280;62796;42.654;23.316;2023-07-31T06:29:28;94285.31;;;25.14;44.15
29197;BME280;62796;42.654;23.316;2023-07-31T06:31:53;94291.06;;;25.07;44.79
29197;BME280;62796;42.654;23.316;2023-07-31T06:34:18;94296.09;;;24.99;45.14
29197;BME280;62796;42.654;23.316;2023-07-31T06:36:44;94282.09;;;25.01;44.58
29197;BME280;62796;42.654;23.316;2023-07-31T06:39:09;94286.34;;;24.92;45.12
29197;BME280;62796;42.654;23.316;2023-07-31T06:41:34;94289.78;;;24.91;45.60
29197;BME280;62796;42.654;23.316;2023-07-31T06:44:00;94292.88;;;24.85;46.00
29197;BME280;62796;42.654;23.316;2023-07-31T06:46:25;94287.63;;;24.82;46.18
29197;BME280;62796;42.654;23.316;2023-07-31T06:48:51;94288.16;;;24.97;45.76
29197;BME280;62796;42.654;23.316;2023-07-31T06:51:16;94285.59;;;24.92;45.54
29197;BME280;62796;42.654;23.316;2023-07-31T06:53:42;94294.78;;;24.83;46.07
29197;BME280;62796;42.654;23.316;2023-07-31T06:56:10;94304.69;;;24.74;46.53
29197;BME280;62796;42.654;23.316;2023-07-31T06:58:35;94300.13;;;24.78;46.24
29197;BME280;62796;42.654;23.316;2023-07-31T07:01:01;94303.38;;;24.75;46.44
29197;BME280;62796;42.654;23.316;2023-07-31T07:03:27;94298.53;;;24.85;46.09
29197;BME280;62796;42.654;23.316;2023-07-31T07:05:52;94291.69;;;24.88;45.67
29197;BME280;62796;42.654;23.316;2023-07-31T07:08:18;94300.34;;;24.73;46.16
29197;BME280;62796;42.654;23.316;2023-07-31T07:10:43;94286.13;;;24.81;46.68
29197;BME280;62796;42.654;23.316;2023-07-31T07:13:09;94289.31;;;25.11;45.95
29197;BME280;62796;42.654;23.316;2023-07-31T07:15:34;94304.69;;;25.18;45.08
29197;BME280;62796;42.654;23.316;2023-07-31T07:18:00;94293.59;;;25.03;45.05
29197;BME280;62796;42.654;23.316;2023-07-31T07:20:25;94295.53;;;24.83;45.26
29197;BME280;62796;42.654;23.316;2023-07-31T07:22:51;94298.88;;;25.16;44.88
29197;BME280;62796;42.654;23.316;2023-07-31T07:25:16;94289.84;;;25.27;43.81
29197;BME280;62796;42.654;23.316;2023-07-31T07:27:41;94296.31;;;25.37;43.15
29197;BME280;62796;42.654;23.316;2023-07-31T07:30:07;94287.47;;;25.50;42.90
29197;BME280;62796;42.654;23.316;2023-07-31T07:32:33;94287.47;;;25.50;43.02
29197;BME280;62796;42.654;23.316;2023-07-31T07:34:58;94283.91;;;25.59;42.80
29197;BME280;62796;42.654;23.316;2023-07-31T07:37:23;94291.75;;;25.88;42.47
29197;BME280;62796;42.654;23.316;2023-07-31T07:39:49;94286.91;;;26.07;41.87
29197;BME280;62796;42.654;23.316;2023-07-31T07:42:14;94289.19;;;26.28;41.60
29197;BME280;62796;42.654;23.316;2023-07-31T07:44:39;94292.78;;;26.38;41.24
29197;BME280;62796;42.654;23.316;2023-07-31T07:47:05;94301.31;;;26.48;40.81
29197;BME280;62796;42.654;23.316;2023-07-31T07:49:34;94308.69;;;26.14;41.63
29197;BME280;62796;42.654;23.316;2023-07-31T07:52:00;94306.34;;;26.20;41.24
29197;BME280;62796;42.654;23.316;2023-07-31T07:54:25;94300.84;;;26.32;41.04
29197;BME280;62796;42.654;23.316;2023-07-31T07:56:51;94305.03;;;26.31;40.88
29197;BME280;62796;42.654;23.316;2023-07-31T07:59:16;94301.47;;;26.40;40.88
29197;BME280;62796;42.654;23.316;2023-07-31T08:01:42;94306.53;;;26.51;41.21
29197;BME280;62796;42.654;23.316;2023-07-31T08:04:07;94307.88;;;26.40;41.72
29197;BME280;62796;42.654;23.316;2023-07-31T08:06:33;94313.41;;;26.48;41.46
29197;BME280;62796;42.654;23.316;2023-07-31T08:08:59;94306.84;;;26.55;40.09
29197;BME280;62796;42.654;23.316;2023-07-31T08:11:24;94306.22;;;26.47;40.34
29197;BME280;62796;42.654;23.316;2023-07-31T08:13:49;94305.03;;;26.50;40.53
29197;BME280;62796;42.654;23.316;2023-07-31T08:16:15;94309.69;;;26.74;38.89
29197;BME280;62796;42.654;23.316;2023-07-31T08:18:41;94314.78;;;26.95;38.42
29197;BME280;62796;42.654;23.316;2023-07-31T08:21:08;94303.84;;;27.11;38.28
29197;BME280;62796;42.654;23.316;2023-07-31T08:23:33;94313.13;;;27.21;38.13
29197;BME280;62796;42.654;23.316;2023-07-31T08:25:58;94310.72;;;27.27;38.05
29197;BME280;62796;42.654;23.316;2023-07-31T08:28:24;94299.69;;;27.62;37.36
29197;BME280;62796;42.654;23.316;2023-07-31T08:30:49;94304.72;;;27.82;36.80
29197;BME280;62796;42.654;23.316;2023-07-31T08:33:15;94307.91;;;27.67;36.84
29197;BME280;62796;42.654;23.316;2023-07-31T08:35:41;94301.50;;;27.57;37.46
29197;BME280;62796;42.654;23.316;2023-07-31T08:38:07;94301.19;;;27.93;36.48
29197;BME280;62796;42.654;23.316;2023-07-31T08:40:36;94300.94;;;28.20;35.97
29197;BME280;62796;42.654;23.316;2023-07-31T08:43:03;94302.63;;;28.14;36.07
29197;BME280;62796;42.654;23.316;2023-07-31T08:45:28;94303.31;;;28.24;35.49
29197;BME280;62796;42.654;23.316;2023-07-31T08:47:55;94298.50;;;28.26;35.28
29197;BME280;62796;42.654;23.316;2023-07-31T08:50:21;94300.06;;;28.39;35.08
29197;BME280;62796;42.654;23.316;2023-07-31T08:52:50;94300.63;;;28.68;34.68
29197;BME280;62796;42.654;23.316;2023-07-31T08:55:15;94311.34;;;28.58;35.01
29197;BME280;62796;42.654;23.316;2023-07-31T08:57:42;94299.00;;;28.65;35.19
29197;BME280;62796;42.654;23.316;2023-07-31T09:00:09;94316.84;;;28.66;34.60
29197;BME280;62796;42.654;23.316;2023-07-31T09:02:44;94313.22;;;28.44;34.72
29197;BME280;62796;42.654;23.316;2023-07-31T09:05:11;94305.97;;;28.31;34.98
29197;BME280;62796;42.654;23.316;2023-07-31T09:07:37;94305.25;;;28.52;34.56
29197;BME280;62796;42.654;23.316;2023-07-31T09:10:04;94307.72;;;28.67;34.23
29197;BME280;62796;42.654;23.316;2023-07-31T09:12:30;94300.09;;;28.81;33.99
29197;BME280;62796;42.654;23.316;2023-07-31T09:14:59;94307.75;;;28.79;33.73
29197;BME280;62796;42.654;23.316;2023-07-31T09:17:33;94298.56;;;28.59;33.48
29197;BME280;62796;42.654;23.316;2023-07-31T09:20:13;94298.69;;;28.82;33.33
29197;BME280;62796;42.654;23.316;2023-07-31T09:22:39;94296.19;;;28.98;32.79
29197;BME280;62796;42.654;23.316;2023-07-31T09:25:24;94290.72;;;28.90;32.91
29197;BME280;62796;42.654;23.316;2023-07-31T09:30:22;94291.19;;;27.52;36.21
29197;BME280;62796;42.654;23.316;2023-07-31T09:32:49;94268.72;;;27.87;36.21
29197;BME280;62796;42.654;23.316;2023-07-31T09:35:22;94280.25;;;28.41;34.91
29197;BME280;62796;42.654;23.316;2023-07-31T09:37:51;94273.00;;;28.71;34.20
29197;BME280;62796;42.654;23.316;2023-07-31T09:43:00;94276.66;;;29.16;33.25
29197;BME280;62796;42.654;23.316;2023-07-31T09:45:25;94282.06;;;29.33;33.21
29197;BME280;62796;42.654;23.316;2023-07-31T09:47:51;94272.78;;;29.55;33.28
29197;BME280;62796;42.654;23.316;2023-07-31T09:50:17;94276.91;;;29.64;32.69
29197;BME280;62796;42.654;23.316;2023-07-31T09:52:42;94269.53;;;29.38;33.21
29197;BME280;62796;42.654;23.316;2023-07-31T09:55:09;94271.81;;;29.51;32.85
29197;BME280;62796;42.654;23.316;2023-07-31T09:57:41;94264.59;;;29.50;32.54
29197;BME280;62796;42.654;23.316;2023-07-31T10:00:09;94269.94;;;29.55;32.54
29197;BME280;62796;42.654;23.316;2023-07-31T10:02:36;94266.59;;;29.71;32.27
29197;BME280;62796;42.654;23.316;2023-07-31T10:05:03;94265.97;;;29.72;32.22
29197;BME280;62796;42.654;23.316;2023-07-31T10:07:30;94265.63;;;30.01;31.33
29197;BME280;62796;42.654;23.316;2023-07-31T10:10:00;94265.38;;;29.85;31.12
29197;BME280;62796;42.654;23.316;2023-07-31T10:12:27;94272.72;;;29.88;30.82
29197;BME280;62796;42.654;23.316;2023-07-31T10:14:55;94275.53;;;29.77;31.59
29197;BME280;62796;42.654;23.316;2023-07-31T10:17:22;94267.34;;;29.71;31.14
29197;BME280;62796;42.654;23.316;2023-07-31T10:19:49;94260.94;;;29.82;31.17
29197;BME280;62796;42.654;23.316;2023-07-31T10:22:15;94260.53;;;29.99;30.72
29197;BME280;62796;42.654;23.316;2023-07-31T10:24:42;94257.47;;;29.95;30.85
29197;BME280;62796;42.654;23.316;2023-07-31T10:27:09;94258.19;;;29.84;31.01
29197;BME280;62796;42.654;23.316;2023-07-31T10:29:36;94263.00;;;30.05;30.83
29197;BME280;62796;42.654;23.316;2023-07-31T10:32:03;94254.72;;;29.86;31.25
29197;BME280;62796;42.654;23.316;2023-07-31T10:34:33;94248.53;;;29.89;31.01
29197;BME280;62796;42.654;23.316;2023-07-31T10:37:22;94253.34;;;29.98;30.48
29197;BME280;62796;42.654;23.316;2023-07-31T10:40:05;94252.72;;;29.65;30.95
29197;BME280;62796;42.654;23.316;2023-07-31T10:43:23;94255.97;;;29.94;30.72
29197;BME280;62796;42.654;23.316;2023-07-31T10:45:27;94245.75;;;30.14;29.80
29197;BME280;62796;42.654;23.316;2023-07-31T10:48:15;94236.25;;;30.35;29.55
29197;BME280;62796;42.654;23.316;2023-07-31T10:50:52;94250.66;;;30.60;29.38
29197;BME280;62796;42.654;23.316;2023-07-31T10:53:29;94249.09;;;30.71;28.94
29197;BME280;62796;42.654;23.316;2023-07-31T10:56:13;94233.81;;;31.03;28.44
29197;BME280;62796;42.654;23.316;2023-07-31T10:58:43;94235.19;;;31.27;28.18
29197;BME280;62796;42.654;23.316;2023-07-31T11:01:09;94233.63;;;31.38;27.84
29197;BME280;62796;42.654;23.316;2023-07-31T11:06:07;94237.91;;;32.03;26.26
29197;BME280;62796;42.654;23.316;2023-07-31T11:08:35;94221.66;;;32.35;25.52
29197;BME280;62796;42.654;23.316;2023-07-31T11:13:49;94217.00;;;32.84;24.68
29197;BME280;62796;42.654;23.316;2023-07-31T11:16:15;94210.81;;;32.90;24.51
29197;BME280;62796;42.654;23.316;2023-07-31T11:18:44;94215.41;;;32.81;23.96
29197;BME280;62796;42.654;23.316;2023-07-31T11:21:20;94225.25;;;32.92;23.76
29197;BME280;62796;42.654;23.316;2023-07-31T11:23:47;94217.03;;;33.14;23.47
29197;BME280;62796;42.654;23.316;2023-07-31T11:26:14;94222.78;;;33.29;22.67
29197;BME280;62796;42.654;23.316;2023-07-31T11:28:39;94211.31;;;33.29;22.97
29197;BME280;62796;42.654;23.316;2023-07-31T11:31:09;94213.25;;;33.25;23.25
29197;BME280;62796;42.654;23.316;2023-07-31T11:33:35;94224.78;;;33.11;23.46
29197;BME280;62796;42.654;23.316;2023-07-31T11:36:00;94211.81;;;33.10;24.00
29197;BME280;62796;42.654;23.316;2023-07-31T11:38:27;94216.22;;;33.27;23.85
29197;BME280;62796;42.654;23.316;2023-07-31T11:40:54;94216.03;;;32.80;23.97
29197;BME280;62796;42.654;23.316;2023-07-31T11:43:20;94213.50;;;32.16;25.75
29197;BME280;62796;42.654;23.316;2023-07-31T11:45:48;94210.06;;;32.60;25.29
29197;BME280;62796;42.654;23.316;2023-07-31T11:48:27;94210.81;;;32.90;25.19
29197;BME280;62796;42.654;23.316;2023-07-31T11:50:57;94209.34;;;33.18;25.08
29197;BME280;62796;42.654;23.316;2023-07-31T11:53:53;94193.16;;;32.96;24.33
29197;BME280;62796;42.654;23.316;2023-07-31T11:56:23;94204.72;;;32.98;24.05
29197;BME280;62796;42.654;23.316;2023-07-31T11:58:53;94210.75;;;33.17;24.26
29197;BME280;62796;42.654;23.316;2023-07-31T12:01:20;94212.22;;;33.34;23.87
29197;BME280;62796;42.654;23.316;2023-07-31T12:03:47;94211.97;;;33.44;23.93
29197;BME280;62796;42.654;23.316;2023-07-31T12:06:13;94212.91;;;33.32;23.57
29197;BME280;62796;42.654;23.316;2023-07-31T12:08:38;94187.81;;;33.33;23.70
29197;BME280;62796;42.654;23.316;2023-07-31T12:11:05;94196.47;;;33.19;24.19
29197;BME280;62796;42.654;23.316;2023-07-31T12:13:31;94190.03;;;33.34;24.06
29197;BME280;62796;42.654;23.316;2023-07-31T12:15:59;94198.16;;;33.40;24.14
29197;BME280;62796;42.654;23.316;2023-07-31T12:18:26;94180.75;;;33.52;24.00
29197;BME280;62796;42.654;23.316;2023-07-31T12:20:59;94185.25;;;33.70;24.04
29197;BME280;62796;42.654;23.316;2023-07-31T12:23:26;94188.78;;;33.69;24.59
29197;BME280;62796;42.654;23.316;2023-07-31T12:26:14;94190.78;;;33.66;24.78
29197;BME280;62796;42.654;23.316;2023-07-31T12:28:45;94187.78;;;33.17;25.48
29197;BME280;62796;42.654;23.316;2023-07-31T12:31:15;94172.16;;;32.91;25.50
29197;BME280;62796;42.654;23.316;2023-07-31T12:33:43;94180.91;;;32.79;25.37
29197;BME280;62796;42.654;23.316;2023-07-31T12:36:23;94188.19;;;32.67;25.98
29197;BME280;62796;42.654;23.316;2023-07-31T12:38:49;94187.50;;;32.82;25.51
29197;BME280;62796;42.654;23.316;2023-07-31T12:41:15;94183.63;;;32.91;24.89
29197;BME280;62796;42.654;23.316;2023-07-31T12:43:42;94182.03;;;32.59;24.78
29197;BME280;62796;42.654;23.316;2023-07-31T12:46:08;94183.41;;;32.44;25.11
29197;BME280;62796;42.654;23.316;2023-07-31T12:48:34;94175.16;;;32.37;25.08
29197;BME280;62796;42.654;23.316;2023-07-31T12:51:00;94172.75;;;32.17;24.96
29197;BME280;62796;42.654;23.316;2023-07-31T12:53:25;94173.72;;;32.08;25.52
29197;BME280;62796;42.654;23.316;2023-07-31T12:55:51;94162.16;;;32.06;25.60
29197;BME280;62796;42.654;23.316;2023-07-31T12:58:16;94165.34;;;32.12;25.87
29197;BME280;62796;42.654;23.316;2023-07-31T13:00:41;94172.75;;;32.17;25.47
29197;BME280;62796;42.654;23.316;2023-07-31T13:03:07;94155.38;;;32.13;25.61
29197;BME280;62796;42.654;23.316;2023-07-31T13:05:33;94148.06;;;32.10;25.25